createdAt,value
2022-09-11T00:01:27.173Z,5.85
2022-09-11T00:03:56.234Z,6.18
2022-09-11T00:06:30.197Z,5.88
2022-09-11T00:09:00.560Z,5.90
2022-09-11T00:11:29.585Z,5.43
2022-09-11T00:13:56.458Z,5.43
2022-09-11T00:16:27.985Z,6.22
2022-09-11T00:18:57.202Z,6.65
2022-09-11T00:21:24.635Z,7.53
2022-09-11T00:23:51.508Z,6.72
2022-09-11T00:26:18.909Z,7.15
2022-09-11T00:28:46.964Z,6.75
2022-09-11T00:31:19.747Z,6.45
2022-09-11T00:37:50.541Z,6.93
2022-09-11T00:40:19.105Z,6.78
2022-09-11T00:42:52.862Z,6.70
2022-09-11T00:45:24.680Z,7.30
2022-09-11T00:47:52.753Z,6.63
2022-09-11T00:50:24.115Z,7.20
2022-09-11T00:52:54.537Z,7.82
2022-09-11T00:55:23.647Z,6.25
2022-09-11T00:58:00.273Z,7.10
2022-09-11T01:00:27.232Z,7.28
2022-09-11T01:02:54.846Z,6.85
2022-09-11T01:05:24.720Z,6.63
2022-09-11T01:07:54.284Z,6.70
2022-09-11T01:10:30.385Z,7.60
2022-09-11T01:13:17.363Z,7.82
2022-09-11T01:15:55.262Z,6.15
2022-09-11T01:18:30.115Z,6.75
2022-09-11T01:21:16.026Z,7.38
2022-09-11T01:24:08.963Z,6.28
2022-09-11T01:27:08.165Z,7.28
2022-09-11T01:29:41.078Z,7.40
2022-09-11T01:35:00.229Z,7.30
2022-09-11T01:37:35.549Z,6.82
2022-09-11T01:40:10.774Z,6.20
2022-09-11T01:42:39.643Z,7.57
2022-09-11T01:45:07.382Z,8.32
2022-09-11T01:47:35.188Z,7.28
2022-09-11T01:50:09.308Z,8.32
2022-09-11T01:52:43.285Z,8.45
2022-09-11T01:55:14.006Z,7.57
2022-09-11T01:57:48.298Z,8.00
2022-09-11T02:00:15.929Z,8.63
2022-09-11T02:02:46.714Z,7.53
2022-09-11T02:05:16.878Z,7.55
2022-09-11T02:07:48.912Z,7.85
2022-09-11T02:10:20.042Z,8.00
2022-09-11T02:12:53.378Z,8.98
2022-09-11T02:15:27.640Z,8.82
2022-09-11T02:17:59.987Z,9.68
2022-09-11T02:20:29.029Z,9.65
2022-09-11T02:22:56.666Z,9.93
2022-09-11T02:25:24.335Z,9.88
2022-09-11T02:27:55.642Z,9.48
2022-09-11T02:30:22.834Z,8.95
2022-09-11T02:32:49.546Z,10.55
2022-09-11T02:35:16.349Z,10.05
2022-09-11T02:38:13.823Z,9.65
2022-09-11T02:41:09.957Z,10.45
2022-09-11T02:43:56.050Z,10.60
2022-09-11T02:46:34.779Z,11.20
2022-09-11T02:49:09.458Z,11.40
2022-09-11T02:52:00.814Z,10.90
2022-09-11T02:54:33.207Z,10.15
2022-09-11T02:57:21.110Z,12.43
2022-09-11T02:59:54.582Z,10.45
2022-09-11T03:02:23.453Z,11.20
2022-09-11T03:04:50.647Z,11.90
2022-09-11T03:07:18.221Z,11.20
2022-09-11T03:09:44.958Z,10.85
2022-09-11T03:12:18.954Z,11.23
2022-09-11T03:14:49.465Z,10.40
2022-09-11T03:17:17.015Z,12.32
2022-09-11T03:19:43.849Z,12.05
2022-09-11T03:22:10.518Z,12.18
2022-09-11T03:24:37.424Z,11.77
2022-09-11T03:27:05.406Z,11.75
2022-09-11T03:29:32.103Z,12.02
2022-09-11T03:32:00.748Z,12.63
2022-09-11T03:34:28.116Z,12.70
2022-09-11T03:37:21.619Z,12.90
2022-09-11T03:39:48.517Z,12.55
2022-09-11T03:42:15.821Z,11.60
2022-09-11T03:44:42.549Z,12.90
2022-09-11T03:47:11.882Z,12.07
2022-09-11T03:50:30.807Z,13.00
2022-09-11T03:52:58.152Z,11.32
2022-09-11T03:55:26.882Z,11.80
2022-09-11T03:57:54.434Z,11.65
2022-09-11T04:00:21.111Z,12.18
2022-09-11T04:02:47.890Z,12.52
2022-09-11T04:05:25.262Z,12.52
2022-09-11T04:07:53.825Z,12.98
2022-09-11T04:10:20.781Z,12.68
2022-09-11T04:12:48.173Z,12.63
2022-09-11T04:15:15.078Z,12.55
2022-09-11T04:17:41.758Z,13.35
2022-09-11T04:20:13.463Z,13.25
2022-09-11T04:22:41.547Z,13.52
2022-09-11T04:25:08.850Z,13.60
2022-09-11T04:27:35.494Z,12.18
2022-09-11T04:30:05.742Z,14.60
2022-09-11T04:32:34.168Z,14.60
2022-09-11T04:35:01.811Z,14.65
2022-09-11T04:37:35.665Z,14.95
2022-09-11T04:40:03.585Z,15.38
2022-09-11T04:42:31.257Z,14.48
2022-09-11T04:44:58.070Z,14.93
2022-09-11T04:47:24.746Z,14.70
2022-09-11T04:49:52.251Z,14.40
2022-09-11T04:52:19.409Z,15.52
2022-09-11T04:54:46.408Z,15.43
2022-09-11T04:57:15.790Z,14.98
2022-09-11T04:59:45.294Z,15.77
2022-09-11T05:02:13.110Z,15.55
2022-09-11T05:04:43.099Z,14.07
2022-09-11T05:07:14.382Z,15.02
2022-09-11T05:09:44.013Z,14.98
2022-09-11T05:12:11.050Z,15.27
2022-09-11T05:14:37.854Z,14.85
2022-09-11T05:17:04.696Z,16.30
2022-09-11T05:19:35.334Z,17.17
2022-09-11T05:22:02.030Z,15.27
2022-09-11T05:24:30.201Z,16.42
2022-09-11T05:26:58.833Z,16.92
2022-09-11T05:29:32.420Z,16.05
2022-09-11T05:32:11.038Z,18.10
2022-09-11T05:34:37.687Z,17.48
2022-09-11T05:37:05.338Z,17.35
2022-09-11T05:39:38.857Z,16.42
2022-09-11T05:42:07.270Z,15.48
2022-09-11T05:44:36.921Z,15.30
2022-09-11T05:47:04.776Z,16.52
2022-09-11T05:49:37.185Z,16.23
2022-09-11T05:52:04.437Z,16.45
2022-09-11T05:54:34.058Z,15.20
2022-09-11T05:57:06.896Z,16.90
2022-09-11T05:59:35.944Z,15.93
2022-09-11T06:02:03.120Z,18.92
2022-09-11T06:04:40.827Z,16.48
2022-09-11T06:07:13.214Z,18.70
2022-09-11T06:09:41.818Z,16.70
2022-09-11T06:12:12.316Z,19.88
2022-09-11T06:14:40.634Z,19.48
2022-09-11T06:18:25.982Z,18.83
2022-09-11T06:21:21.205Z,18.10
2022-09-11T06:24:14.447Z,18.45
2022-09-11T06:27:07.858Z,18.83
2022-09-11T06:29:37.950Z,17.45
2022-09-11T06:36:51.903Z,17.42
2022-09-11T06:39:22.691Z,18.48
2022-09-11T06:41:50.961Z,17.35
2022-09-11T06:44:22.507Z,18.02
2022-09-11T06:46:51.842Z,17.75
2022-09-11T06:49:20.631Z,18.98
2022-09-11T06:52:06.747Z,18.80
2022-09-11T06:54:34.475Z,20.02
2022-09-11T06:57:07.030Z,20.02
2022-09-11T06:59:35.939Z,18.00
2022-09-11T07:02:04.003Z,17.48
2022-09-11T07:04:32.845Z,18.65
2022-09-11T07:07:01.643Z,17.25
2022-09-11T07:09:28.973Z,17.58
2022-09-11T07:11:57.686Z,18.23
2022-09-11T07:14:29.513Z,19.33
2022-09-11T07:17:07.206Z,18.73
2022-09-11T07:19:33.935Z,17.23
2022-09-11T07:22:02.440Z,18.65
2022-09-11T07:24:30.874Z,20.48
2022-09-11T07:26:58.793Z,17.42
2022-09-11T07:29:31.522Z,16.50
2022-09-11T07:31:59.992Z,18.20
2022-09-11T07:34:27.536Z,21.63
2022-09-11T07:36:56.652Z,18.83
2022-09-11T07:39:25.777Z,20.45
2022-09-11T07:42:00.964Z,19.77
2022-09-11T07:44:31.754Z,20.27
2022-09-11T07:46:58.425Z,21.23
2022-09-11T07:49:26.897Z,20.60
2022-09-11T07:51:54.589Z,21.80
2022-09-11T07:54:31.619Z,20.73
2022-09-11T07:57:00.644Z,20.38
2022-09-11T07:59:27.817Z,18.95
2022-09-11T08:01:55.960Z,19.80
2022-09-11T08:04:23.710Z,22.42
2022-09-11T08:06:51.479Z,19.45
2022-09-11T08:09:26.885Z,20.25
2022-09-11T08:11:58.460Z,18.33
2022-09-11T08:14:27.283Z,21.77
2022-09-11T08:16:57.028Z,23.05
2022-09-11T08:19:26.657Z,19.73
2022-09-11T08:21:56.001Z,23.00
2022-09-11T08:24:24.293Z,18.33
2022-09-11T08:26:59.567Z,23.30
2022-09-11T08:29:27.499Z,22.52
2022-09-11T08:31:56.363Z,23.75
2022-09-11T08:34:28.147Z,22.25
2022-09-11T08:37:02.464Z,21.70
2022-09-11T08:59:11.989Z,21.17
2022-09-11T09:01:41.840Z,22.98
2022-09-11T09:04:32.345Z,20.98
2022-09-11T09:07:14.950Z,21.48
2022-09-11T09:10:32.910Z,21.17
2022-09-11T09:13:27.584Z,20.60
2022-09-11T09:16:09.498Z,17.80
2022-09-11T09:18:48.150Z,21.17
2022-09-11T09:21:26.078Z,21.48
2022-09-11T09:23:55.221Z,20.65
2022-09-11T09:26:29.721Z,18.05
2022-09-11T09:28:59.286Z,18.38
2022-09-11T09:31:28.970Z,20.65
2022-09-11T09:34:08.622Z,19.73
2022-09-11T09:36:57.066Z,18.23
2022-09-11T09:39:25.124Z,20.10
2022-09-11T09:41:54.710Z,19.23
2022-09-11T09:44:43.911Z,19.35
2022-09-11T09:47:12.145Z,20.27
2022-09-11T09:49:39.143Z,20.05
2022-09-11T09:52:19.957Z,19.38
2022-09-11T09:54:58.392Z,18.35
2022-09-11T09:57:27.609Z,18.52
2022-09-11T10:00:14.281Z,19.45
2022-09-11T10:02:45.499Z,18.92
2022-09-11T10:05:16.836Z,15.20
2022-09-11T10:07:55.036Z,18.20
2022-09-11T10:10:24.297Z,17.65
2022-09-11T10:12:51.153Z,18.08
2022-09-11T10:15:22.639Z,18.13
2022-09-11T10:17:50.467Z,16.83
2022-09-11T10:20:21.851Z,18.35
2022-09-11T10:22:49.860Z,16.17
2022-09-11T10:25:16.641Z,14.35
2022-09-11T10:28:05.799Z,16.42
2022-09-11T10:30:55.338Z,14.95
2022-09-11T10:33:30.113Z,16.60
2022-09-11T10:35:58.322Z,13.43
2022-09-11T10:38:32.249Z,13.95
2022-09-11T10:41:14.985Z,15.02
2022-09-11T10:43:52.941Z,13.07
2022-09-11T10:46:30.262Z,13.73
2022-09-11T10:49:02.616Z,13.93
2022-09-11T10:51:31.515Z,11.95
2022-09-11T10:54:15.257Z,13.40
2022-09-11T10:57:07.910Z,13.15
2022-09-11T10:59:59.275Z,13.57
2022-09-11T11:02:30.153Z,12.98
2022-09-11T11:04:58.073Z,11.75
2022-09-11T11:07:40.297Z,14.10
2022-09-11T11:10:25.215Z,13.77
2022-09-11T11:13:15.573Z,13.27
2022-09-11T11:16:15.863Z,12.57
2022-09-11T11:19:01.543Z,11.60
2022-09-11T11:21:44.557Z,15.57
2022-09-11T11:24:32.376Z,17.33
2022-09-11T11:27:18.607Z,17.67
2022-09-11T11:30:10.342Z,16.38
2022-09-11T11:33:10.690Z,15.40
2022-09-11T11:35:44.749Z,14.23
2022-09-11T11:38:16.437Z,13.05
2022-09-11T11:40:49.304Z,13.70
2022-09-11T11:43:21.200Z,13.95
2022-09-11T11:46:12.378Z,16.08
2022-09-11T11:48:45.075Z,15.10
2022-09-11T11:51:17.373Z,16.63
2022-09-11T11:53:48.931Z,18.00
2022-09-11T11:56:49.632Z,16.08
2022-09-11T11:59:31.891Z,15.80
2022-09-11T12:02:05.682Z,15.13
2022-09-11T12:04:55.825Z,14.25
2022-09-11T12:07:26.291Z,13.90
2022-09-11T12:09:54.675Z,14.43
2022-09-11T12:12:23.277Z,15.40
2022-09-11T12:15:02.505Z,15.20
2022-09-11T12:17:33.677Z,14.82
2022-09-11T12:20:12.387Z,15.82
2022-09-11T12:22:42.736Z,15.43
2022-09-11T12:25:21.585Z,14.95
2022-09-11T12:27:52.175Z,15.70
2022-09-11T12:30:20.227Z,16.65
2022-09-11T12:32:49.640Z,15.63
2022-09-11T12:35:31.602Z,12.65
2022-09-11T12:38:08.947Z,14.45
2022-09-11T12:41:07.312Z,13.98
2022-09-11T12:43:34.067Z,16.08
2022-09-11T12:46:02.115Z,15.52
2022-09-11T12:48:44.082Z,15.15
2022-09-11T12:51:26.036Z,14.23
2022-09-11T12:53:55.888Z,14.02
2022-09-11T12:56:25.575Z,15.02
2022-09-11T12:58:57.200Z,14.23
2022-09-11T13:01:36.112Z,15.07
2022-09-11T13:04:09.142Z,14.05
2022-09-11T13:06:47.525Z,12.63
2022-09-11T13:09:38.198Z,14.57
2022-09-11T13:12:44.541Z,13.63
2022-09-11T13:15:45.368Z,13.40
2022-09-11T13:18:33.048Z,13.07
2022-09-11T13:21:02.046Z,14.13
2022-09-11T13:23:29.238Z,12.63
2022-09-11T13:25:58.023Z,12.10
2022-09-11T13:28:27.503Z,13.73
2022-09-11T13:31:05.047Z,11.80
2022-09-11T13:33:32.369Z,11.48
2022-09-11T13:36:02.440Z,10.93
2022-09-11T13:38:34.178Z,11.35
2022-09-11T13:41:04.990Z,10.93
2022-09-11T13:43:35.927Z,9.93
2022-09-11T13:46:14.580Z,11.93
2022-09-11T13:48:45.790Z,11.15
2022-09-11T13:51:13.499Z,11.25
2022-09-11T13:53:41.138Z,11.38
2022-09-11T13:56:35.479Z,10.82
2022-09-11T13:59:38.387Z,10.68
2022-09-11T14:02:26.428Z,10.95
2022-09-11T14:04:58.098Z,10.98
2022-09-11T14:07:26.547Z,10.20
2022-09-11T14:10:08.242Z,11.73
2022-09-11T14:12:50.162Z,12.52
2022-09-11T14:15:41.043Z,12.82
2022-09-11T14:18:39.547Z,11.45
2022-09-11T14:21:15.053Z,10.55
2022-09-11T14:23:48.072Z,11.75
2022-09-11T14:26:16.889Z,9.38
2022-09-11T14:28:55.670Z,11.23
2022-09-11T14:31:28.508Z,9.95
2022-09-11T14:34:17.895Z,9.63
2022-09-11T14:36:47.533Z,10.13
2022-09-11T14:39:18.879Z,10.40
2022-09-11T14:41:45.719Z,10.63
2022-09-11T14:44:15.580Z,10.68
2022-09-11T14:46:43.207Z,12.07
2022-09-11T14:49:10.841Z,11.60
2022-09-11T14:51:38.070Z,11.85
2022-09-11T14:54:05.785Z,10.73
2022-09-11T14:56:33.037Z,10.05
2022-09-11T14:58:59.848Z,10.45
2022-09-11T15:01:26.701Z,10.85
2022-09-11T15:03:54.850Z,11.75
2022-09-11T15:06:21.985Z,11.57
2022-09-11T15:08:48.737Z,12.60
2022-09-11T15:11:15.935Z,13.70
2022-09-11T15:14:04.084Z,12.20
2022-09-11T15:16:31.185Z,12.05
2022-09-11T15:18:58.477Z,13.13
2022-09-11T15:21:25.185Z,11.57
2022-09-11T15:23:51.845Z,12.20
2022-09-11T15:26:18.499Z,12.32
2022-09-11T15:28:49.509Z,12.20
2022-09-11T15:31:18.371Z,13.45
2022-09-11T15:33:50.085Z,11.27
2022-09-11T15:36:16.746Z,11.85
2022-09-11T15:38:43.443Z,11.88
2022-09-11T15:41:10.296Z,11.00
2022-09-11T15:43:39.296Z,11.45
2022-09-11T15:46:11.288Z,12.15
2022-09-11T15:48:39.231Z,10.70
2022-09-11T15:51:12.729Z,9.55
2022-09-11T15:53:40.055Z,11.80
2022-09-11T15:56:12.750Z,11.63
2022-09-11T15:58:39.876Z,10.55
2022-09-11T16:01:07.408Z,10.50
2022-09-11T16:03:34.220Z,10.18
2022-09-11T16:06:04.005Z,10.40
2022-09-11T16:08:30.658Z,11.02
2022-09-11T16:10:57.377Z,10.18
2022-09-11T16:13:25.274Z,12.00
2022-09-11T16:16:02.601Z,11.68
2022-09-11T16:18:29.621Z,10.80
2022-09-11T16:20:58.001Z,10.88
2022-09-11T16:23:25.822Z,11.18
2022-09-11T16:25:52.748Z,11.70
2022-09-11T16:28:19.573Z,11.60
2022-09-11T16:30:49.556Z,9.52
2022-09-11T16:33:17.885Z,10.05
2022-09-11T16:35:45.215Z,10.90
2022-09-11T16:38:11.984Z,11.52
2022-09-11T16:40:39.064Z,11.43
2022-09-11T16:43:05.804Z,10.48
2022-09-11T16:45:32.752Z,11.70
2022-09-11T16:47:59.981Z,10.10
2022-09-11T16:50:26.812Z,9.65
2022-09-11T16:52:54.316Z,10.93
2022-09-11T16:55:21.257Z,9.55
2022-09-11T16:57:47.922Z,10.05
2022-09-11T17:00:14.762Z,11.43
2022-09-11T17:02:41.694Z,10.68
2022-09-11T17:05:09.128Z,11.25
2022-09-11T17:07:35.787Z,10.60
2022-09-11T17:10:03.187Z,11.15
2022-09-11T17:12:30.002Z,11.52
2022-09-11T17:14:56.694Z,10.43
2022-09-11T17:17:23.348Z,10.82
2022-09-11T17:19:51.169Z,12.55
2022-09-11T17:22:17.884Z,11.00
2022-09-11T17:24:44.568Z,10.18
2022-09-11T17:27:11.281Z,11.07
2022-09-11T17:29:42.430Z,11.00
2022-09-11T17:32:27.364Z,11.07
2022-09-11T17:34:55.198Z,11.00
2022-09-11T17:37:22.355Z,11.57
2022-09-11T17:39:49.042Z,11.45
2022-09-11T17:42:15.764Z,11.55
2022-09-11T17:44:43.049Z,12.07
2022-09-11T17:47:09.683Z,11.77
2022-09-11T17:49:36.380Z,11.48
2022-09-11T17:52:03.197Z,12.10
2022-09-11T17:54:29.950Z,11.68
2022-09-11T17:56:57.941Z,11.32
2022-09-11T17:59:24.815Z,11.43
2022-09-11T18:01:51.780Z,11.02
2022-09-11T18:04:18.478Z,11.68
2022-09-11T18:06:45.319Z,10.68
2022-09-11T18:09:16.224Z,10.63
2022-09-11T18:11:44.806Z,10.98
2022-09-11T18:14:12.108Z,11.57
2022-09-11T18:16:39.229Z,11.40
2022-09-11T18:19:06.602Z,11.70
2022-09-11T18:21:38.112Z,11.00
2022-09-11T18:24:06.498Z,11.23
2022-09-11T18:26:36.610Z,11.25
2022-09-11T18:29:11.641Z,12.30
2022-09-11T18:31:40.870Z,11.82
2022-09-11T18:34:09.137Z,11.80
2022-09-11T18:36:35.840Z,12.40
2022-09-11T18:39:03.367Z,12.43
2022-09-11T18:41:32.182Z,12.32
2022-09-11T18:44:00.601Z,11.82
2022-09-11T18:46:28.120Z,12.20
2022-09-11T18:48:55.873Z,12.57
2022-09-11T18:51:22.590Z,11.40
2022-09-11T18:53:52.931Z,12.02
2022-09-11T18:56:21.702Z,12.48
2022-09-11T18:58:50.423Z,11.20
2022-09-11T19:01:19.411Z,13.43
2022-09-11T19:03:47.090Z,11.82
2022-09-11T19:06:20.179Z,11.65
2022-09-11T19:08:47.644Z,12.75
2022-09-11T19:11:21.811Z,11.00
2022-09-11T19:13:49.377Z,12.00
2022-09-11T19:16:17.855Z,11.82
2022-09-11T19:18:44.592Z,12.05
2022-09-11T19:21:20.727Z,12.10
2022-09-11T19:23:49.541Z,12.00
2022-09-11T19:26:24.679Z,11.90
2022-09-11T19:28:51.917Z,12.90
2022-09-11T19:31:29.981Z,13.45
2022-09-11T19:34:00.270Z,13.93
2022-09-11T19:36:32.649Z,13.70
2022-09-11T19:39:00.665Z,13.55
2022-09-11T19:41:32.797Z,13.23
2022-09-11T19:44:01.606Z,13.13
2022-09-11T19:46:29.527Z,14.27
2022-09-11T19:49:00.474Z,13.50
2022-09-11T19:51:32.171Z,13.73
2022-09-11T19:54:00.317Z,13.32
2022-09-11T19:56:27.846Z,14.57
2022-09-11T19:58:54.916Z,13.38
2022-09-11T20:01:23.118Z,13.13
2022-09-11T20:03:52.838Z,13.43
2022-09-11T20:06:21.963Z,12.90
2022-09-11T20:08:49.152Z,14.48
2022-09-11T20:11:19.016Z,13.57
2022-09-11T20:13:46.093Z,12.93
2022-09-11T20:16:15.656Z,13.50
2022-09-11T20:18:43.220Z,13.55
2022-09-11T20:21:18.503Z,14.63
2022-09-11T20:23:45.589Z,13.10
2022-09-11T20:26:18.675Z,14.50
2022-09-11T20:28:46.880Z,14.18
2022-09-11T20:31:17.219Z,12.77
2022-09-11T20:33:45.093Z,13.73
2022-09-11T20:36:12.661Z,13.55
2022-09-11T20:38:39.447Z,13.93
2022-09-11T20:41:09.740Z,13.88
2022-09-11T20:43:36.640Z,13.25
2022-09-11T20:46:03.481Z,13.68
2022-09-11T20:48:30.944Z,13.82
2022-09-11T20:51:11.583Z,15.23
2022-09-11T20:53:39.539Z,14.32
2022-09-11T20:56:09.163Z,14.75
2022-09-11T20:58:36.349Z,13.48
2022-09-11T21:01:03.704Z,13.38
2022-09-11T21:03:31.172Z,13.30
2022-09-11T21:05:58.270Z,14.40
2022-09-11T21:08:55.312Z,14.55
2022-09-11T21:11:23.010Z,13.55
2022-09-11T21:13:50.031Z,14.10
2022-09-11T21:16:16.979Z,13.88
2022-09-11T21:18:49.509Z,15.27
2022-09-11T21:21:16.126Z,13.90
2022-09-11T21:23:43.069Z,13.38
2022-09-11T21:26:11.036Z,14.70
2022-09-11T21:28:38.802Z,14.95
2022-09-11T21:31:06.955Z,14.43
2022-09-11T21:33:38.132Z,14.30
2022-09-11T21:36:07.308Z,14.07
2022-09-11T21:38:36.551Z,13.43
2022-09-11T21:41:05.236Z,13.00
2022-09-11T21:43:32.018Z,13.52
2022-09-11T21:45:58.663Z,14.45
2022-09-11T21:48:25.382Z,13.95
2022-09-11T21:50:54.892Z,14.80
2022-09-11T21:53:21.687Z,14.27
2022-09-11T21:55:48.604Z,13.13
2022-09-11T21:58:19.648Z,14.30
2022-09-11T22:00:49.811Z,14.05
2022-09-11T22:03:18.624Z,13.57
2022-09-11T22:05:49.037Z,14.02
2022-09-11T22:08:46.627Z,14.93
2022-09-11T22:11:14.716Z,13.38
2022-09-11T22:13:41.441Z,13.75
2022-09-11T22:16:12.018Z,13.15
2022-09-11T22:18:39.846Z,13.50
2022-09-11T22:21:07.399Z,13.25
2022-09-11T22:23:34.047Z,13.20
2022-09-11T22:26:05.711Z,12.55
2022-09-11T22:28:32.402Z,13.63
2022-09-11T22:30:59.220Z,13.70
2022-09-11T22:33:25.923Z,13.80
2022-09-11T22:35:52.559Z,14.15
2022-09-11T22:38:19.322Z,13.82
2022-09-11T22:40:52.011Z,13.07
2022-09-11T22:43:18.634Z,13.93
2022-09-11T22:45:52.148Z,13.30
2022-09-11T22:48:19.151Z,12.68
2022-09-11T22:50:45.815Z,13.23
2022-09-11T22:53:12.960Z,13.18
2022-09-11T22:55:46.994Z,13.75
2022-09-11T22:58:13.631Z,13.02
2022-09-11T23:00:41.126Z,13.27
2022-09-11T23:03:07.998Z,12.98
2022-09-11T23:05:53.502Z,14.05
2022-09-11T23:08:21.178Z,13.15
2022-09-11T23:10:47.891Z,12.43
2022-09-11T23:13:14.575Z,13.38
2022-09-11T23:15:41.297Z,14.85
2022-09-11T23:18:09.109Z,12.98
2022-09-11T23:20:35.755Z,13.90
2022-09-11T23:23:03.738Z,13.88
2022-09-11T23:25:31.544Z,13.52
2022-09-11T23:27:58.191Z,13.48
2022-09-11T23:30:24.907Z,13.93
2022-09-11T23:32:53.292Z,12.35
2022-09-11T23:35:20.042Z,13.45
2022-09-11T23:37:46.669Z,13.88
2022-09-11T23:40:13.608Z,12.90
2022-09-11T23:42:40.332Z,11.57
2022-09-11T23:45:07.523Z,13.30
2022-09-11T23:47:34.223Z,13.02
2022-09-11T23:50:02.026Z,11.93
2022-09-11T23:52:29.124Z,12.85
2022-09-11T23:54:56.040Z,13.85
2022-09-11T23:57:22.668Z,12.68
2022-09-11T23:59:49.309Z,12.93
